Time;durP1;ratioP1;P1;durP2;ratioP2;P2;SDS_P1;SDS_P2;PMS_P1;PMS_P2;Temp;Humidity;BMP_temperature;BMP_pressure;BME280_temperature;BME280_humidity;BME280_pressure;Samples;Min_cycle;Max_cycle;Signal;HPM_P1;HPM_P2
2023/01/04 00:00:34;;;;;;;;;;;;;;;2.54;100.00;97733.00;5073601;28;19957;-74
2023/01/04 00:03:00;;;;;;;;;;;;;;;2.53;100.00;97727.94;5073247;28;19960;-74
2023/01/04 00:05:26;;;;;;;;;;;;;;;2.51;100.00;97733.25;5073850;28;20093;-74
2023/01/04 00:07:52;;;;;;;;;;;;;;;2.51;100.00;97729.84;5073176;28;19961;-75
2023/01/04 00:10:17;;;;;;;;;;;;;;;2.51;100.00;97727.25;5073604;28;19959;-73
2023/01/04 00:12:43;;;;;;;;;;;;;;;2.51;100.00;97728.06;5073535;28;19964;-74
2023/01/04 00:15:09;;;;;;;;;;;;;;;2.51;100.00;97720.31;5077614;28;20036;-74
2023/01/04 00:17:35;;;;;;;;;;;;;;;2.44;100.00;97712.25;5076900;28;20031;-73
2023/01/04 00:20:01;;;;;;;;;;;;;;;2.41;100.00;97707.34;5059279;28;19995;-74
2023/01/04 00:22:27;;;;;;;;;;;;;;;2.43;100.00;97704.63;5077214;28;20446;-74
2023/01/04 00:24:53;;;;;;;;;;;;;;;2.44;100.00;97708.84;5077042;28;20015;-74
2023/01/04 00:27:19;;;;;;;;;;;;;;;2.47;100.00;97708.56;5077252;28;19956;-74
2023/01/04 00:29:44;;;;;;;;;;;;;;;2.49;100.00;97704.09;5077068;28;20004;-74
2023/01/04 00:32:10;;;;;;;;;;;;;;;2.46;100.00;97701.78;5059142;28;20387;-74
2023/01/04 00:34:36;;;;;;;;;;;;;;;2.41;100.00;97696.97;5076704;28;20008;-75
2023/01/04 00:37:02;;;;;;;;;;;;;;;2.37;100.00;97689.63;5077294;28;19976;-74
2023/01/04 00:39:29;;;;;;;;;;;;;;;2.36;100.00;97682.81;5076112;28;19955;-74
2023/01/04 00:42:03;;;;;;;;;;;;;;;2.35;100.00;97682.00;5076684;28;19958;-74
2023/01/04 00:44:30;;;;;;;;;;;;;;;2.35;100.00;97682.00;5076751;28;20427;-74
2023/01/04 00:46:57;;;;;;;;;;;;;;;2.37;100.00;97679.25;5076351;28;19950;-74
2023/01/04 00:49:23;;;;;;;;;;;;;;;2.39;100.00;97674.78;5077006;28;20397;-74
2023/01/04 00:51:49;;;;;;;;;;;;;;;2.41;100.00;97680.63;5076613;28;19951;-74
2023/01/04 00:54:15;;;;;;;;;;;;;;;2.44;100.00;97670.84;5076620;28;19966;-74
2023/01/04 00:56:41;;;;;;;;;;;;;;;2.43;100.00;97669.19;5076637;28;19953;-74
2023/01/04 00:59:07;;;;;;;;;;;;;;;2.46;100.00;97662.94;5076890;28;20429;-74
2023/01/04 01:01:33;;;;;;;;;;;;;;;2.47;100.00;97654.19;5076473;28;19962;-74
2023/01/04 01:04:01;;;;;;;;;;;;;;;2.43;100.00;97655.44;5076247;28;19964;-74
2023/01/04 01:06:28;;;;;;;;;;;;;;;2.42;100.00;97664.16;5076335;28;19959;-74
2023/01/04 01:08:54;;;;;;;;;;;;;;;2.41;100.00;97658.13;5076063;28;20326;-74
2023/01/04 01:11:20;;;;;;;;;;;;;;;2.43;100.00;97653.66;5076600;28;20044;-74
2023/01/04 01:13:47;;;;;;;;;;;;;;;2.43;100.00;97651.06;5075902;28;19944;-74
2023/01/04 01:16:14;;;;;;;;;;;;;;;2.44;100.00;97650.13;5076259;28;19949;-74
2023/01/04 01:18:41;;;;;;;;;;;;;;;2.44;100.00;97657.06;5076098;28;19957;-74
2023/01/04 01:21:07;;;;;;;;;;;;;;;2.48;100.00;97661.03;5076367;28;20329;-74
2023/01/04 01:23:34;;;;;;;;;;;;;;;2.50;100.00;97668.63;5075467;28;19967;-74
2023/01/04 01:26:00;;;;;;;;;;;;;;;2.53;100.00;97664.00;5076153;28;19948;-74
2023/01/04 01:28:27;;;;;;;;;;;;;;;2.49;100.00;97665.25;5075836;28;19959;-74
2023/01/04 01:30:52;;;;;;;;;;;;;;;2.49;100.00;97665.25;5075691;28;19980;-74
2023/01/04 01:33:18;;;;;;;;;;;;;;;2.49;100.00;97659.25;5075929;28;20395;-74
2023/01/04 01:35:44;;;;;;;;;;;;;;;2.50;100.00;97664.31;5075562;28;19959;-74
2023/01/04 01:38:10;;;;;;;;;;;;;;;2.51;100.00;97655.56;5075681;28;20474;-74
2023/01/04 01:40:40;;;;;;;;;;;;;;;2.55;100.00;97648.34;5075605;28;19954;-74
2023/01/04 01:43:15;;;;;;;;;;;;;;;2.55;100.00;97659.50;5075715;28;19965;-74
2023/01/04 01:45:41;;;;;;;;;;;;;;;2.55;100.00;97659.50;5075719;28;19949;-74
2023/01/04 01:48:11;;;;;;;;;;;;;;;2.55;100.00;97666.47;5075523;28;19949;-74
2023/01/04 01:50:44;;;;;;;;;;;;;;;2.57;100.00;97652.44;5075648;28;19951;-74
2023/01/04 01:53:10;;;;;;;;;;;;;;;2.58;100.00;97653.22;5075515;28;20407;-74
2023/01/04 01:55:38;;;;;;;;;;;;;;;2.58;100.00;97658.41;5075143;28;19953;-74
2023/01/04 01:58:05;;;;;;;;;;;;;;;2.58;100.00;97661.00;5075163;28;19979;-74
2023/01/04 02:00:31;;;;;;;;;;;;;;;2.58;100.00;97661.00;5057814;28;19950;-74
2023/01/04 02:03:09;;;;;;;;;;;;;;;2.59;100.00;97660.06;5074918;28;20013;-74
2023/01/04 02:05:35;;;;;;;;;;;;;;;2.57;100.00;97657.59;5075253;28;19949;-74
2023/01/04 02:08:02;;;;;;;;;;;;;;;2.58;100.00;97668.78;5074172;28;19950;-74
2023/01/04 02:10:28;;;;;;;;;;;;;;;2.58;100.00;97655.81;5074779;28;19961;-74
2023/01/04 02:12:54;;;;;;;;;;;;;;;2.61;100.00;97666.75;5063827;28;19950;-74
2023/01/04 02:15:23;;;;;;;;;;;;;;;2.65;100.00;97656.94;5074340;28;20028;-74
2023/01/04 02:18:07;;;;;;;;;;;;;;;2.68;100.00;97656.63;5074977;28;19947;-74
2023/01/04 02:20:38;;;;;;;;;;;;;;;2.69;100.00;97652.28;5074977;28;19954;-74
2023/01/04 02:23:04;;;;;;;;;;;;;;;2.70;100.00;97649.53;5074388;28;19968;-74
2023/01/04 02:25:48;;;;;;;;;;;;;;;2.67;100.00;97644.66;5074786;28;19948;-74
2023/01/04 02:28:19;;;;;;;;;;;;;;;2.61;100.00;97653.78;5065067;28;19955;-74
2023/01/04 02:31:04;;;;;;;;;;;;;;;2.53;100.00;97647.66;5074818;28;20304;-74
2023/01/04 02:33:42;;;;;;;;;;;;;;;2.42;100.00;97635.69;5074777;28;19949;-74
2023/01/04 02:36:14;;;;;;;;;;;;;;;2.35;100.00;97638.00;5058446;28;19942;-74
2023/01/04 02:38:47;;;;;;;;;;;;;;;2.27;100.00;97632.69;5074648;28;19969;-74
2023/01/04 02:41:20;;;;;;;;;;;;;;;2.19;100.00;97633.34;5074488;28;19949;-76
2023/01/04 02:46:40;;;;;;;;;;;;;;;2.04;100.00;97626.94;5074224;28;19952;-74
2023/01/04 02:51:51;;;;;;;;;;;;;;;1.98;100.00;97623.13;5074318;28;19951;-74
2023/01/04 02:54:22;;;;;;;;;;;;;;;1.94;100.00;97621.75;5073387;28;20433;-74
2023/01/04 02:56:53;;;;;;;;;;;;;;;1.95;100.00;97612.22;5074199;28;20308;-74
2023/01/04 02:59:22;;;;;;;;;;;;;;;1.93;100.00;97617.56;5056288;28;20315;-76
2023/01/04 03:07:50;;;;;;;;;;;;;;;1.94;100.00;97608.00;5073973;28;19954;-74
2023/01/04 03:10:20;;;;;;;;;;;;;;;1.93;100.00;97608.94;5073788;28;19948;-74
2023/01/04 03:12:51;;;;;;;;;;;;;;;1.89;100.00;97598.06;5073765;28;19942;-75
2023/01/04 03:15:22;;;;;;;;;;;;;;;1.89;100.00;97595.50;5074133;28;19953;-74
2023/01/04 03:17:51;;;;;;;;;;;;;;;1.88;100.00;97595.63;5073931;28;19947;-74
2023/01/04 03:20:18;;;;;;;;;;;;;;;1.81;100.00;97597.94;5073904;28;19949;-75
2023/01/04 03:36:54;;;;;;;;;;;;;;;1.70;100.00;97595.44;5074065;28;19972;-75
2023/01/04 03:50:46;;;;;;;;;;;;;;;1.85;100.00;97613.97;5077870;28;19956;-74
2023/01/04 03:53:12;;;;;;;;;;;;;;;1.92;100.00;97602.16;5077762;28;19946;-74
2023/01/04 03:55:40;;;;;;;;;;;;;;;1.95;100.00;97594.13;5077422;28;19966;-75
2023/01/04 03:58:06;;;;;;;;;;;;;;;1.93;100.00;97594.28;5077506;28;19950;-74
2023/01/04 04:00:33;;;;;;;;;;;;;;;1.89;100.00;97587.72;5077330;28;19959;-75
2023/01/04 04:03:06;;;;;;;;;;;;;;;1.86;100.00;97584.59;5077707;28;19956;-74
2023/01/04 04:08:26;;;;;;;;;;;;;;;1.83;100.00;97575.34;5077599;28;20023;-75
2023/01/04 04:10:53;;;;;;;;;;;;;;;1.84;100.00;97574.38;5077383;28;19951;-75
2023/01/04 04:13:19;;;;;;;;;;;;;;;1.88;100.00;97562.00;5077235;28;19952;-74
2023/01/04 04:15:45;;;;;;;;;;;;;;;1.90;100.00;97558.31;5077300;28;19950;-74
2023/01/04 04:18:11;;;;;;;;;;;;;;;1.91;100.00;97564.28;5076191;28;19988;-74
2023/01/04 04:20:37;;;;;;;;;;;;;;;1.93;100.00;97562.38;5077028;28;20004;-74
2023/01/04 04:23:03;;;;;;;;;;;;;;;1.98;100.00;97558.44;5077082;28;19958;-74
2023/01/04 04:25:29;;;;;;;;;;;;;;;2.02;100.00;97554.63;5077094;28;19963;-74
2023/01/04 04:27:55;;;;;;;;;;;;;;;2.06;100.00;97562.94;5059109;28;19950;-74
2023/01/04 04:30:21;;;;;;;;;;;;;;;2.13;100.00;97565.81;5076806;28;19980;-74
2023/01/04 04:32:46;;;;;;;;;;;;;;;2.14;100.00;97565.69;5077100;28;20479;-74
2023/01/04 04:35:12;;;;;;;;;;;;;;;2.14;100.00;97568.25;5076723;28;20041;-74
2023/01/04 04:37:38;;;;;;;;;;;;;;;2.15;100.00;97563.91;5077018;28;20069;-75
2023/01/04 04:40:04;;;;;;;;;;;;;;;2.18;100.00;97558.44;5076522;28;19960;-75
2023/01/04 04:42:30;;;;;;;;;;;;;;;2.25;100.00;97556.94;5076640;28;19957;-75
2023/01/04 04:44:56;;;;;;;;;;;;;;;2.29;100.00;97541.94;5077245;28;19962;-74
2023/01/04 04:47:22;;;;;;;;;;;;;;;2.33;100.00;97545.88;5076900;28;19954;-74
2023/01/04 04:49:48;;;;;;;;;;;;;;;2.35;100.00;97541.38;5076597;28;20012;-75
2023/01/04 04:52:14;;;;;;;;;;;;;;;2.35;100.00;97531.88;5058978;28;19952;-75
2023/01/04 04:54:40;;;;;;;;;;;;;;;2.37;100.00;97534.28;5076488;28;19954;-74
2023/01/04 04:57:05;;;;;;;;;;;;;;;2.39;100.00;97534.97;5077320;28;20316;-74
2023/01/04 04:59:31;;;;;;;;;;;;;;;2.39;100.00;97527.22;5076033;28;20001;-74
2023/01/04 05:01:57;;;;;;;;;;;;;;;2.41;100.00;97525.28;5076459;28;19997;-75
2023/01/04 05:04:23;;;;;;;;;;;;;;;2.38;100.00;97529.00;5076198;28;20021;-76
2023/01/04 05:06:51;;;;;;;;;;;;;;;2.37;100.00;97529.13;5076324;28;20413;-74
2023/01/04 05:09:17;;;;;;;;;;;;;;;2.40;100.00;97526.25;5075998;28;20299;-74
2023/01/04 05:14:28;;;;;;;;;;;;;;;2.48;100.00;97528.97;5076640;28;19969;-74
2023/01/04 05:16:54;;;;;;;;;;;;;;;2.48;100.00;97539.34;5076346;28;19955;-74
2023/01/04 05:19:19;;;;;;;;;;;;;;;2.50;100.00;97527.06;5075973;28;20329;-74
2023/01/04 05:21:45;;;;;;;;;;;;;;;2.51;100.00;97527.88;5076074;28;20021;-74
2023/01/04 05:24:11;;;;;;;;;;;;;;;2.52;100.00;97527.75;5075711;28;19979;-74
2023/01/04 05:26:38;;;;;;;;;;;;;;;2.53;100.00;97534.53;5075550;28;19973;-74
2023/01/04 05:29:04;;;;;;;;;;;;;;;2.56;100.00;97526.50;5075857;28;19991;-74
2023/01/04 05:31:29;;;;;;;;;;;;;;;2.58;100.00;97523.75;5075670;28;19956;-75
2023/01/04 05:33:55;;;;;;;;;;;;;;;2.58;100.00;97518.56;5075896;28;20001;-74
2023/01/04 05:36:21;;;;;;;;;;;;;;;2.59;100.00;97530.59;5075328;28;19994;-75
2023/01/04 05:38:47;;;;;;;;;;;;;;;2.62;100.00;97531.13;5075903;28;20418;-75
2023/01/04 05:43:57;;;;;;;;;;;;;;;2.72;100.00;97540.63;5064849;28;19969;-74
2023/01/04 05:46:23;;;;;;;;;;;;;;;2.73;100.00;97539.66;5075612;28;19951;-74
2023/01/04 05:48:49;;;;;;;;;;;;;;;2.77;100.00;97531.50;5075638;28;19947;-74
2023/01/04 05:51:15;;;;;;;;;;;;;;;2.79;100.00;97523.56;5074896;28;19959;-75
2023/01/04 05:53:41;;;;;;;;;;;;;;;2.83;100.00;97519.72;5075238;28;20037;-75
2023/01/04 05:56:07;;;;;;;;;;;;;;;2.85;100.00;97520.38;5075549;28;19980;-74
2023/01/04 05:58:33;;;;;;;;;;;;;;;2.88;100.00;97509.75;5075476;28;20396;-74
2023/01/04 06:00:59;;;;;;;;;;;;;;;2.90;100.00;97514.78;5075314;28;19993;-75
2023/01/04 06:03:24;;;;;;;;;;;;;;;2.93;100.00;97509.31;5074968;28;19957;-75
2023/01/04 06:05:50;;;;;;;;;;;;;;;2.94;100.00;97510.94;5074842;28;19956;-74
2023/01/04 06:08:16;;;;;;;;;;;;;;;2.94;100.00;97504.00;5075202;28;20423;-75
2023/01/04 06:10:42;;;;;;;;;;;;;;;2.94;100.00;97509.19;5075042;28;20040;-74
2023/01/04 06:13:08;;;;;;;;;;;;;;;2.96;100.00;97502.09;5075277;28;20401;-74
2023/01/04 06:15:34;;;;;;;;;;;;;;;2.97;100.00;97508.06;5075066;28;20001;-74
2023/01/04 06:18:00;;;;;;;;;;;;;;;2.98;100.00;97501.94;5075224;28;19995;-75
2023/01/04 06:20:26;;;;;;;;;;;;;;;3.00;100.00;97511.22;5074714;28;20368;-74
2023/01/04 06:22:51;;;;;;;;;;;;;;;3.03;100.00;97499.72;5075364;28;20000;-74
2023/01/04 06:25:17;;;;;;;;;;;;;;;3.03;100.00;97497.94;5074843;28;20068;-74
2023/01/04 06:27:43;;;;;;;;;;;;;;;3.07;100.00;97505.41;5074775;28;20385;-74
2023/01/04 06:30:09;;;;;;;;;;;;;;;3.07;100.00;97497.66;5073602;28;19991;-74
2023/01/04 06:32:35;;;;;;;;;;;;;;;3.09;100.00;97495.72;5074713;28;19952;-74
2023/01/04 06:35:01;;;;;;;;;;;;;;;3.11;100.00;97505.00;5074682;28;19957;-74
2023/01/04 06:37:27;;;;;;;;;;;;;;;3.14;100.00;97502.13;5073982;28;20462;-74
2023/01/04 06:39:53;;;;;;;;;;;;;;;3.15;100.00;97498.59;5074427;28;19957;-74
2023/01/04 06:45:03;;;;;;;;;;;;;;;3.19;100.00;97492.16;5074364;28;19971;-74
2023/01/04 06:47:29;;;;;;;;;;;;;;;3.21;100.00;97495.41;5074212;28;20414;-74
2023/01/04 06:49:55;;;;;;;;;;;;;;;3.22;100.00;97496.22;5056377;28;19996;-74
2023/01/04 06:52:21;;;;;;;;;;;;;;;3.23;100.00;97498.69;5074513;28;19982;-74
2023/01/04 06:54:47;;;;;;;;;;;;;;;3.29;100.00;97499.03;5074219;28;20407;-74
2023/01/04 06:57:13;;;;;;;;;;;;;;;3.30;100.00;97508.44;5074033;28;20000;-76
2023/01/04 06:59:38;;;;;;;;;;;;;;;3.34;100.00;97510.63;5074125;28;20332;-74
2023/01/04 07:02:04;;;;;;;;;;;;;;;3.39;100.00;97510.97;5073961;28;19968;-74
2023/01/04 07:04:30;;;;;;;;;;;;;;;3.40;100.00;97507.44;5074247;28;19972;-74
2023/01/04 07:06:56;;;;;;;;;;;;;;;3.40;100.00;97507.44;5073307;28;19959;-75
2023/01/04 07:09:22;;;;;;;;;;;;;;;3.39;100.00;97513.56;5073957;28;19963;-74
2023/01/04 07:11:48;;;;;;;;;;;;;;;3.40;100.00;97516.97;5060961;28;20323;-75
2023/01/04 07:14:14;;;;;;;;;;;;;;;3.40;100.00;97511.78;5074003;28;19994;-74
2023/01/04 07:16:40;;;;;;;;;;;;;;;3.41;100.00;97509.06;5073744;28;20444;-75
2023/01/04 07:19:07;;;;;;;;;;;;;;;3.44;100.00;97510.53;5056361;28;19998;-74
2023/01/04 07:21:32;;;;;;;;;;;;;;;3.47;100.00;97506.84;5073737;28;19953;-74
2023/01/04 07:23:58;;;;;;;;;;;;;;;3.49;100.00;97500.56;5056209;28;20015;-74
2023/01/04 07:26:24;;;;;;;;;;;;;;;3.51;100.00;97513.34;5074067;28;20002;-74
2023/01/04 07:31:35;;;;;;;;;;;;;;;3.54;100.00;97508.69;5073715;28;19970;-74
2023/01/04 07:34:00;;;;;;;;;;;;;;;3.56;100.00;97504.19;5074054;28;20389;-75
2023/01/04 07:36:26;;;;;;;;;;;;;;;3.57;100.00;97497.22;5073574;28;20006;-75
2023/01/04 07:38:52;;;;;;;;;;;;;;;3.57;100.00;97489.44;5073787;28;20414;-75
2023/01/04 07:41:18;;;;;;;;;;;;;;;3.57;100.00;97486.84;5073555;28;20415;-74
2023/01/04 07:43:44;;;;;;;;;;;;;;;3.59;100.00;97497.88;5073363;28;19956;-74
2023/01/04 07:46:10;;;;;;;;;;;;;;;3.59;100.00;97487.50;5073753;28;20326;-74
2023/01/04 07:48:36;;;;;;;;;;;;;;;3.60;100.00;97483.97;5055786;28;19960;-74
2023/01/04 07:51:02;;;;;;;;;;;;;;;3.59;100.00;97485.75;5073541;28;20052;-74
2023/01/04 07:53:28;;;;;;;;;;;;;;;3.63;100.00;97491.44;5073487;28;19957;-75
2023/01/04 07:55:55;;;;;;;;;;;;;;;3.64;100.00;97485.28;5073505;28;19978;-75
2023/01/04 07:58:21;;;;;;;;;;;;;;;3.65;100.00;97487.75;5073604;28;19950;-74
2023/01/04 08:00:47;;;;;;;;;;;;;;;3.65;100.00;97477.38;5073424;28;20044;-75
2023/01/04 08:03:12;;;;;;;;;;;;;;;3.65;100.00;97481.72;5073980;28;19959;-75
2023/01/04 08:05:38;;;;;;;;;;;;;;;3.68;100.00;97472.84;5073522;28;20422;-75
2023/01/04 08:08:04;;;;;;;;;;;;;;;3.68;100.00;97481.44;5073578;28;20016;-74
2023/01/04 08:10:30;;;;;;;;;;;;;;;3.71;100.00;97477.72;5073219;28;20001;-75
2023/01/04 08:12:59;;;;;;;;;;;;;;;3.72;100.00;97477.59;5073353;28;19957;-75
2023/01/04 08:15:25;;;;;;;;;;;;;;;3.73;100.00;97476.59;5071845;28;20001;-74
2023/01/04 08:17:51;;;;;;;;;;;;;;;3.78;100.00;97464.03;5073426;28;19984;-75
2023/01/04 08:20:18;;;;;;;;;;;;;;;3.78;100.00;97458.84;5073471;28;20474;-75
2023/01/04 08:22:43;;;;;;;;;;;;;;;3.82;100.00;97457.56;5073136;28;19957;-74
2023/01/04 08:25:09;;;;;;;;;;;;;;;3.86;100.00;97447.69;5055347;28;19970;-75
2023/01/04 08:27:35;;;;;;;;;;;;;;;3.88;100.00;97445.75;5073273;28;20404;-75
2023/01/04 08:30:01;;;;;;;;;;;;;;;3.93;100.00;97468.69;5073326;28;20540;-75
2023/01/04 08:32:27;;;;;;;;;;;;;;;3.97;100.00;97457.00;5073483;28;20318;-75
2023/01/04 08:34:53;;;;;;;;;;;;;;;4.01;100.00;97458.34;5075092;28;19998;-75
2023/01/04 08:37:19;;;;;;;;;;;;;;;4.04;100.00;97458.03;5076882;28;20323;-75
2023/01/04 08:39:45;;;;;;;;;;;;;;;4.09;100.00;97452.41;5076813;28;19964;-75
2023/01/04 08:42:11;;;;;;;;;;;;;;;4.11;100.00;97446.06;5076748;28;19952;-75
2023/01/04 08:44:37;;;;;;;;;;;;;;;4.12;100.00;97447.72;5076100;28;20035;-75
2023/01/04 08:47:03;;;;;;;;;;;;;;;4.14;100.00;97438.00;5076596;28;19966;-74
2023/01/04 08:49:29;;;;;;;;;;;;;;;4.15;100.00;97436.22;5076623;28;19970;-75
2023/01/04 08:51:55;;;;;;;;;;;;;;;4.18;100.00;97433.28;5076405;28;20418;-75
2023/01/04 08:54:21;;;;;;;;;;;;;;;4.21;100.00;97435.59;5076467;28;20410;-75
2023/01/04 08:56:47;;;;;;;;;;;;;;;4.23;100.00;97436.25;5058709;28;19962;-75
2023/01/04 08:59:13;;;;;;;;;;;;;;;4.23;100.00;97424.09;5076421;28;19960;-74
2023/01/04 09:01:39;;;;;;;;;;;;;;;4.25;100.00;97435.13;5076441;28;20007;-74
2023/01/04 09:04:05;;;;;;;;;;;;;;;4.27;100.00;97438.41;5076309;28;20327;-75
2023/01/04 09:06:31;;;;;;;;;;;;;;;4.29;100.00;97443.44;5076635;28;19955;-74
2023/01/04 09:08:57;;;;;;;;;;;;;;;4.30;100.00;97436.47;5076116;28;19958;-75
2023/01/04 09:11:23;;;;;;;;;;;;;;;4.33;100.00;97438.78;5076264;28;20335;-74
2023/01/04 09:13:53;;;;;;;;;;;;;;;4.33;100.00;97436.16;5076123;28;19945;-75
2023/01/04 09:16:19;;;;;;;;;;;;;;;4.35;100.00;97431.63;5076529;28;19949;-75
2023/01/04 09:18:45;;;;;;;;;;;;;;;4.39;100.00;97432.94;5076114;28;19957;-74
2023/01/04 09:21:16;;;;;;;;;;;;;;;4.39;100.00;97428.56;5076077;28;19972;-75
2023/01/04 09:23:42;;;;;;;;;;;;;;;4.43;100.00;97427.31;5075790;28;19946;-74
2023/01/04 09:26:09;;;;;;;;;;;;;;;4.48;100.00;97421.63;5075992;28;19987;-75
2023/01/04 09:28:35;;;;;;;;;;;;;;;4.51;100.00;97423.91;5075920;28;20402;-75
2023/01/04 09:31:08;;;;;;;;;;;;;;;4.55;100.00;97414.03;5075845;28;19955;-74
2023/01/04 09:33:34;;;;;;;;;;;;;;;4.60;100.00;97419.56;5075865;28;19952;-75
2023/01/04 09:36:04;;;;;;;;;;;;;;;4.64;100.00;97429.50;5075678;28;19985;-75
2023/01/04 09:38:31;;;;;;;;;;;;;;;4.69;100.00;97431.63;5075720;28;19976;-75
2023/01/04 09:41:09;;;;;;;;;;;;;;;4.72;100.00;97413.13;5075229;28;19959;-76
2023/01/04 09:43:38;;;;;;;;;;;;;;;4.77;100.00;97417.88;5057765;28;19968;-75
2023/01/04 09:46:06;;;;;;;;;;;;;;;4.79;100.00;97421.94;5075128;28;19976;-75
2023/01/04 09:48:33;;;;;;;;;;;;;;;4.82;100.00;97426.00;5075573;28;19950;-75
2023/01/04 09:51:04;;;;;;;;;;;;;;;4.84;100.00;97424.06;5075335;28;19948;-75
2023/01/04 09:53:34;;;;;;;;;;;;;;;4.86;100.00;97424.72;5075254;28;19966;-75
2023/01/04 09:56:36;;;;;;;;;;;;;;;4.88;100.00;97428.78;5075337;28;20430;-75
2023/01/04 09:59:06;;;;;;;;;;;;;;;4.90;100.00;97420.03;4993257;28;19950;-76
2023/01/04 10:01:38;;;;;;;;;;;;;;;4.91;100.00;97416.44;5060782;28;20293;-74
2023/01/04 10:04:10;;;;;;;;;;;;;;;4.94;100.00;97410.94;5075061;28;19948;-75
2023/01/04 10:06:36;;;;;;;;;;;;;;;4.94;100.00;97411.75;5074984;28;19963;-75
2023/01/04 10:09:05;;;;;;;;;;;;;;;4.97;100.00;97400.22;5075026;28;19952;-77
2023/01/04 10:11:31;;;;;;;;;;;;;;;4.98;100.00;97392.25;5074625;28;20332;-75
2023/01/04 10:14:02;;;;;;;;;;;;;;;5.01;100.00;97384.13;5075120;28;19947;-74
2023/01/04 10:16:28;;;;;;;;;;;;;;;5.04;100.00;97380.38;5074612;28;19954;-75
2023/01/04 10:18:54;;;;;;;;;;;;;;;5.05;100.00;97382.84;5074905;28;19959;-75
2023/01/04 10:21:38;;;;;;;;;;;;;;;5.09;100.00;97378.94;5074846;28;19953;-75
2023/01/04 10:24:04;;;;;;;;;;;;;;;5.13;100.00;97376.03;5074794;28;19956;-74
2023/01/04 10:26:37;;;;;;;;;;;;;;;5.16;100.00;97371.31;5074793;28;19978;-75
2023/01/04 10:29:06;;;;;;;;;;;;;;;5.22;100.00;97375.06;5075341;28;19963;-75
2023/01/04 10:31:35;;;;;;;;;;;;;;;5.24;100.00;97379.13;5074721;28;19951;-75
2023/01/04 10:34:01;;;;;;;;;;;;;;;5.28;100.00;97369.22;5074772;28;20438;-74
2023/01/04 10:36:30;;;;;;;;;;;;;;;5.31;100.00;97381.88;5074250;28;19978;-77
2023/01/04 10:39:00;;;;;;;;;;;;;;;5.34;100.00;97363.38;5074519;28;19950;-75
2023/01/04 10:41:28;;;;;;;;;;;;;;;5.41;100.00;97361.75;5074509;28;19958;-75
2023/01/04 10:44:29;;;;;;;;;;;;;;;5.48;100.00;97352.31;5074370;28;19950;-75
2023/01/04 10:47:08;;;;;;;;;;;;;;;5.53;100.00;97349.22;4992711;28;20330;-74
2023/01/04 10:49:34;;;;;;;;;;;;;;;5.56;100.00;97348.09;5065347;28;19959;-74
2023/01/04 10:52:08;;;;;;;;;;;;;;;5.60;100.00;97336.38;5074130;28;19946;-75
2023/01/04 10:54:34;;;;;;;;;;;;;;;5.63;100.00;97333.47;5074316;28;19958;-75
2023/01/04 10:57:06;;;;;;;;;;;;;;;5.66;99.85;97317.50;5073672;28;19955;-75
2023/01/04 10:59:33;;;;;;;;;;;;;;;5.68;100.00;97316.34;5074487;28;19955;-74
2023/01/04 11:02:12;;;;;;;;;;;;;;;5.72;100.00;97316.03;5074156;28;20303;-74
2023/01/04 11:04:38;;;;;;;;;;;;;;;5.74;100.00;97322.69;5074087;28;20318;-74
2023/01/04 11:07:24;;;;;;;;;;;;;;;5.76;99.69;97315.53;5074287;28;19948;-74
2023/01/04 11:09:54;;;;;;;;;;;;;;;5.79;100.00;97317.00;5073751;28;20299;-75
2023/01/04 11:12:21;;;;;;;;;;;;;;;5.81;99.62;97321.03;5073804;28;19950;-74
2023/01/04 11:14:48;;;;;;;;;;;;;;;5.84;99.63;97327.72;5074023;28;19954;-75
2023/01/04 11:17:14;;;;;;;;;;;;;;;5.87;100.00;97319.56;5073954;28;19943;-75
2023/01/04 11:19:40;;;;;;;;;;;;;;;5.92;100.00;97321.69;5073918;28;20428;-75
2023/01/04 11:22:13;;;;;;;;;;;;;;;5.92;100.00;97312.06;5073673;28;19956;-75
2023/01/04 11:24:41;;;;;;;;;;;;;;;5.95;99.79;97317.00;5073787;28;19956;-74
2023/01/04 11:27:12;;;;;;;;;;;;;;;5.98;100.00;97308.03;5073638;28;19952;-74
2023/01/04 11:29:39;;;;;;;;;;;;;;;6.01;100.00;97305.09;5074061;28;19957;-75
2023/01/04 11:32:17;;;;;;;;;;;;;;;6.02;100.00;97296.28;5073537;28;19956;-75
2023/01/04 11:34:45;;;;;;;;;;;;;;;6.04;100.00;97299.53;5073732;28;19949;-75
2023/01/04 11:37:22;;;;;;;;;;;;;;;6.08;100.00;97299.03;5073384;28;19971;-74
2023/01/04 11:39:48;;;;;;;;;;;;;;;6.10;100.00;97291.88;5073968;28;19955;-75
2023/01/04 11:42:20;;;;;;;;;;;;;;;6.13;100.00;97289.91;5073624;28;19962;-74
2023/01/04 11:44:57;;;;;;;;;;;;;;;6.16;100.00;97282.56;5073566;28;19963;-75
2023/01/04 11:47:24;;;;;;;;;;;;;;;6.19;100.00;97278.81;5073554;28;19958;-75
2023/01/04 11:49:50;;;;;;;;;;;;;;;6.21;100.00;97279.47;5073400;28;19956;-74
2023/01/04 11:52:30;;;;;;;;;;;;;;;6.25;100.00;97275.53;5073903;28;19970;-75
2023/01/04 11:55:14;;;;;;;;;;;;;;;6.25;100.00;97291.97;5073545;28;20423;-75
2023/01/04 11:57:40;;;;;;;;;;;;;;;6.27;100.00;97284.81;5073520;28;19948;-74
2023/01/04 12:00:13;;;;;;;;;;;;;;;6.29;100.00;97277.63;5073306;28;19960;-74
2023/01/04 12:02:39;;;;;;;;;;;;;;;6.32;100.00;97281.72;5073363;28;19943;-74
2023/01/04 12:05:15;;;;;;;;;;;;;;;6.36;100.00;97275.16;5073450;28;20344;-75
2023/01/04 12:07:41;;;;;;;;;;;;;;;6.37;100.00;97273.38;5073859;28;19948;-75
2023/01/04 12:10:19;;;;;;;;;;;;;;;6.40;100.00;97273.81;5077317;28;19948;-75
2023/01/04 12:12:45;;;;;;;;;;;;;;;6.44;100.00;97284.72;5077331;28;19945;-74
2023/01/04 12:15:16;;;;;;;;;;;;;;;6.46;100.00;97283.56;5077384;28;19949;-74
2023/01/04 12:17:48;;;;;;;;;;;;;;;6.49;100.00;97285.84;5077572;28;20319;-74
2023/01/04 12:20:17;;;;;;;;;;;;;;;6.52;100.00;97289.91;5077132;28;19956;-75
2023/01/04 12:22:43;;;;;;;;;;;;;;;6.55;100.00;97280.91;5077142;28;20394;-76
2023/01/04 12:25:28;;;;;;;;;;;;;;;6.58;100.00;97278.00;5076837;28;20017;-75
2023/01/04 12:27:54;;;;;;;;;;;;;;;6.61;100.00;97273.22;5076944;28;19970;-74
2023/01/04 12:30:43;;;;;;;;;;;;;;;6.64;100.00;97272.09;5076880;28;20361;-74
2023/01/04 12:33:27;;;;;;;;;;;;;;;6.68;100.00;97283.78;5076860;28;19949;-74
2023/01/04 12:36:01;;;;;;;;;;;;;;;6.73;100.00;97270.25;5076966;28;19958;-74
2023/01/04 12:38:46;;;;;;;;;;;;;;;6.78;100.00;97262.69;5076969;28;20449;-74
2023/01/04 12:41:12;;;;;;;;;;;;;;;6.84;100.00;97262.81;5076803;28;19959;-74
2023/01/04 12:43:37;;;;;;;;;;;;;;;6.93;100.00;97265.34;5076665;28;20377;-75
2023/01/04 12:49:25;;;;;;;;;;;;;;;7.06;100.00;97248.16;5060599;28;20466;-74
2023/01/04 12:52:06;;;;;;;;;;;;;;;7.11;100.00;97245.00;5060970;28;19975;-75
2023/01/04 12:54:50;;;;;;;;;;;;;;;7.19;100.00;97239.72;5076613;28;19955;-75
2023/01/04 12:57:16;;;;;;;;;;;;;;;7.25;99.30;97238.22;5076549;28;19959;-75
2023/01/04 13:00:02;;;;;;;;;;;;;;;7.33;98.60;97230.31;5076521;28;19949;-74
2023/01/04 13:02:34;;;;;;;;;;;;;;;7.40;99.19;97233.03;5076301;28;20428;-74
2023/01/04 13:05:23;;;;;;;;;;;;;;;7.44;98.44;97222.03;5076358;28;20413;-74
2023/01/04 13:07:50;;;;;;;;;;;;;;;7.48;97.35;97212.88;5065535;28;19953;-75
2023/01/04 13:10:20;;;;;;;;;;;;;;;7.52;95.99;97210.72;5062921;28;19945;-75
2023/01/04 13:13:01;;;;;;;;;;;;;;;7.54;96.30;97216.56;5075593;28;19948;-74
2023/01/04 13:15:37;;;;;;;;;;;;;;;7.57;95.51;97207.56;5076279;28;20311;-74
2023/01/04 13:18:14;;;;;;;;;;;;;;;7.63;96.57;97212.06;5076192;28;19957;-75
2023/01/04 13:20:40;;;;;;;;;;;;;;;7.65;97.08;97202.25;5067728;28;19972;-74
2023/01/04 13:23:11;;;;;;;;;;;;;;;7.67;95.69;97195.84;5058089;28;19955;-74
2023/01/04 13:25:36;;;;;;;;;;;;;;;7.70;96.27;97202.50;5076022;28;19962;-74
2023/01/04 13:28:03;;;;;;;;;;;;;;;7.71;95.60;97199.72;5076546;28;20047;-75
2023/01/04 13:30:32;;;;;;;;;;;;;;;7.76;96.02;97212.25;5075872;28;19952;-74
2023/01/04 13:32:58;;;;;;;;;;;;;;;7.77;95.52;97199.97;5075977;28;20397;-74
2023/01/04 13:35:24;;;;;;;;;;;;;;;7.78;95.32;97204.22;5075671;28;19951;-75
2023/01/04 13:37:50;;;;;;;;;;;;;;;7.79;95.48;97209.28;5075551;28;20501;-74
2023/01/04 13:40:26;;;;;;;;;;;;;;;7.79;95.22;97201.44;5074661;28;19955;-75
2023/01/04 13:42:55;;;;;;;;;;;;;;;7.80;94.98;97197.84;5066035;28;19963;-74
2023/01/04 13:45:24;;;;;;;;;;;;;;;7.80;95.16;97200.44;5075497;28;19956;-75
2023/01/04 13:47:51;;;;;;;;;;;;;;;7.81;95.03;97201.25;5075501;28;19950;-75